1933 NOT_NAMED (1933302N08137)


IBTrACS version v04r00. Visit IBTrACS website for data access.
Please direct all questions to the IBTrACS Q and A forum

Storm track - Intensity - Wind Radii - Intensity Data - Source Data - All data

Summary Information

Storm ID 1933302N08137
Start Oct 28 22Z
Landfall Oct 30 00Z, Oct 30 10Z, Oct 31 00Z, Nov 1 22Z
End Nov 1 22Z
ATCF IDs
Track status Best track data.

Storm track plot

Map of storm track

Intensity plots

No Intensity information for this storm


Radial wind information

No radial wind information for this storm


Position and Intensity Table

BASIN ISO_TIME_________ NATURE LAT LON
degrees north degrees east
WP 1933-10-28 22:00:00 NR 8.00 136.80
WP 1933-10-29 00:00:00 NR 8.06 135.92
WP 03:00:00 NR 8.15 134.61
WP 06:00:00 NR 8.25 133.31
WP 09:00:00 NR 8.36 132.03
WP 10:00:00 NR 8.40 131.60
WP 12:00:00 NR 8.49 130.76
WP 15:00:00 NR 8.63 129.52
WP 18:00:00 NR 8.78 128.35
WP 21:00:00 NR 8.94 127.25
WP 22:00:00 NR 9.00 126.90
WP 1933-10-30 00:00:00 NR 9.10 126.25
WP 03:00:00 NR 9.27 125.35
WP 06:00:00 NR 9.44 124.50
WP 09:00:00 NR 9.63 123.68
WP 10:00:00 NR 9.70 123.40
WP 12:00:00 NR 9.84 122.81
WP 15:00:00 NR 10.06 121.94
WP 18:00:00 NR 10.30 121.06
WP 21:00:00 NR 10.53 120.19
WP 22:00:00 NR 10.60 119.90
WP 1933-10-31 00:00:00 NR 10.73 119.33
WP 03:00:00 NR 10.92 118.49
WP 06:00:00 NR 11.11 117.64
WP 09:00:00 NR 11.32 116.79
WP 10:00:00 NR 11.40 116.50
WP 12:00:00 NR 11.58 115.86
WP 15:00:00 NR 11.88 114.89
WP 18:00:00 NR 12.17 113.96
WP 21:00:00 NR 12.43 113.14
WP 22:00:00 NR 12.50 112.90
WP 1933-11-01 00:00:00 NR 12.62 112.51
WP 03:00:00 NR 12.75 112.05
WP 06:00:00 NR 12.86 111.68
WP 09:00:00 NR 12.97 111.32
WP 10:00:00 NR 13.00 111.20
WP 12:00:00 NR 13.07 110.93
WP 15:00:00 NR 13.19 110.48
WP 18:00:00 NR 13.32 109.99
WP 21:00:00 NR 13.46 109.47
WP 22:00:00 NR 13.50 109.30

Source Information

Agency Information
USA
TOKYO
CMA
HKO
NEWDELHI
REUNION
BOM
NADI
WELLINGTON
DS824
TD9636 cons_worldwide_trop_cyclone_18710101-19891231-003:Line=9529
TD9635
NEUMANN
MLC

All available IBTrACS Data

SEASON BASIN SUBBASIN ISO_TIME_________ NATURE LAT LON DIST2LAND LANDFALL IFLAG USA SSHS TD9636 LAT TD9636 LON TD9636 STAGE STORM SPEED STORM DIR
Year degrees north degrees east km km 1 degrees north degrees east kts degrees
1933 WP MM 1933-10-28 22:00:00 NR 8.00 136.80 983 976 __________O___ -1 8.00 136.80 7 26 274
1933 WP MM 1933-10-29 00:00:00 NR 8.06 135.92 986 883 __________P___ -1 8.06 135.92 7 26 274
1933 WP MM 03:00:00 NR 8.15 134.61 883 741 __________P___ -1 8.15 134.61 7 26 274
1933 WP MM 06:00:00 NR 8.25 133.31 741 600 __________P___ -1 8.25 133.31 7 26 275
1933 WP MM 09:00:00 NR 8.36 132.03 600 567 __________P___ -1 8.36 132.03 7 26 275
1933 WP MM 10:00:00 NR 8.40 131.60 556 471 __________O___ -1 8.40 131.60 7 25 276
1933 WP MM 12:00:00 NR 8.49 130.76 471 335 __________P___ -1 8.49 130.76 7 25 276
1933 WP MM 15:00:00 NR 8.63 129.52 335 216 __________P___ -1 8.63 129.52 7 24 277
1933 WP MM 18:00:00 NR 8.78 128.35 216 99 __________P___ -1 8.78 128.35 7 23 278
1933 WP MM 21:00:00 NR 8.94 127.25 99 80 __________P___ -1 8.94 127.25 7 22 279
1933 WP MM 22:00:00 NR 9.00 126.90 69 0 __________O___ -1 9.00 126.90 3 20 279
1933 WP MM 1933-10-30 00:00:00 NR 9.10 126.25 0 0 __________P___ -1 9.10 126.25 3 19 280
1933 WP MM 03:00:00 NR 9.27 125.35 21 21 __________P___ -1 9.27 125.35 3 18 281
1933 WP MM 06:00:00 NR 9.44 124.50 31 0 __________P___ -1 9.44 124.50 3 17 282
1933 WP MM 09:00:00 NR 9.63 123.68 21 0 __________P___ -1 9.63 123.68 3 17 283
1933 WP MM 10:00:00 NR 9.70 123.40 0 0 __________O___ -1 9.70 123.40 4 18 284
1933 WP MM 12:00:00 NR 9.84 122.81 0 0 __________P___ -1 9.84 122.81 4 18 284
1933 WP MM 15:00:00 NR 10.06 121.94 33 33 __________P___ -1 10.06 121.94 4 18 285
1933 WP MM 18:00:00 NR 10.30 121.06 88 54 __________P___ -1 10.30 121.06 4 18 285
1933 WP MM 21:00:00 NR 10.53 120.19 54 24 __________P___ -1 10.53 120.19 4 18 285
1933 WP MM 22:00:00 NR 10.60 119.90 24 0 __________O___ -1 10.60 119.90 4 17 284
1933 WP MM 1933-10-31 00:00:00 NR 10.73 119.33 0 0 __________P___ -1 10.73 119.33 4 17 283
1933 WP MM 03:00:00 NR 10.92 118.49 86 93 __________P___ -1 10.92 118.49 4 17 283
1933 WP MM 06:00:00 NR 11.11 117.64 172 172 __________P___ -1 11.11 117.64 4 17 284
1933 WP MM 09:00:00 NR 11.32 116.79 256 264 __________P___ -1 11.32 116.79 4 17 284
1933 WP MM 10:00:00 NR 11.40 116.50 284 284 __________O___ -1 11.40 116.50 4 19 286
1933 WP MM 12:00:00 NR 11.58 115.86 339 346 __________P___ -1 11.58 115.86 4 20 287
1933 WP MM 15:00:00 NR 11.88 114.89 438 446 __________P___ -1 11.88 114.89 4 20 287
1933 WP MM 18:00:00 NR 12.17 113.96 491 391 __________P___ -1 12.17 113.96 4 18 288
1933 WP MM 21:00:00 NR 12.43 113.14 391 369 __________P___ -1 12.43 113.14 4 16 288
1933 WP MM 22:00:00 NR 12.50 112.90 369 325 __________O___ -1 12.50 112.90 4 13 287
1933 WP MM 1933-11-01 00:00:00 NR 12.62 112.51 325 282 __________P___ -1 12.62 112.51 4 10 287
1933 WP MM 03:00:00 NR 12.75 112.05 282 238 __________P___ -1 12.75 112.05 4 9 287
1933 WP MM 06:00:00 NR 12.86 111.68 238 195 __________P___ -1 12.86 111.68 4 7 287
1933 WP MM 09:00:00 NR 12.97 111.32 195 184 __________P___ -1 12.97 111.32 4 7 286
1933 WP MM 10:00:00 NR 13.00 111.20 184 153 __________O___ -1 13.00 111.20 4 8 286
1933 WP MM 12:00:00 NR 13.07 110.93 153 113 __________P___ -1 13.07 110.93 4 9 285
1933 WP MM 15:00:00 NR 13.19 110.48 113 70 __________P___ -1 13.19 110.48 4 10 285
1933 WP MM 18:00:00 NR 13.32 109.99 70 21 __________P___ -1 13.32 109.99 4 10 285
1933 WP MM 21:00:00 NR 13.46 109.47 21 0 __________P___ -1 13.46 109.47 4 10 285
1933 WP MM 22:00:00 NR 13.50 109.30 0 __________O___ -1 13.50 109.30 7 10 285